Bluffs, Illinois
Current Conditions -  °F | °C
As of 1:15 AM on Saturday 29 Nov 2014 (Local Time) from KPPQ Reporting Station
Clear Clear  
Wind Chill: 38°   Ceiling: Unl
Heat Index: 42°   Visibility: NA
Dew Point: 34°   Wind: 7mph
Humidity: 74%   Direction: 180°S
Pressure: 29.8"   Gusts: NA
Location:  39.75°N, 90.54°W
Report Text: KPPQ 290715Z AUTO 18006KT CLR 06/01 A2980 RMK AO2 T00560012 PWINO
Loading
Personal Weather Stations






























Interactive Weather Map New forecast layout! Learn more

10-Day Weather Forecast

Advertisements
Track Severe Weather on mobile